createdAt,value
2022-08-22T00:02:03.146Z,71.52
2022-08-22T00:02:58.277Z,46.74
2022-08-22T00:02:59.184Z,68.62
2022-08-22T00:02:59.527Z,57.61
2022-08-22T00:03:01.815Z,53.81
2022-08-22T00:04:37.803Z,71.39
2022-08-22T00:07:13.433Z,71.31
2022-08-22T00:09:46.611Z,71.50
2022-08-22T00:12:19.160Z,72.38
2022-08-22T00:14:53.554Z,72.31
2022-08-22T00:17:32.773Z,72.29
2022-08-22T00:20:08.211Z,72.54
2022-08-22T00:22:42.516Z,72.86
2022-08-22T00:25:26.804Z,73.23
2022-08-22T00:27:58.384Z,73.93
2022-08-22T00:30:26.656Z,74.39
2022-08-22T00:32:58.980Z,74.19
2022-08-22T00:35:32.345Z,74.22
2022-08-22T00:38:05.525Z,74.29
2022-08-22T00:40:47.151Z,74.61
2022-08-22T00:43:51.556Z,74.85
2022-08-22T00:46:56.229Z,74.66
2022-08-22T00:49:43.883Z,74.60
2022-08-22T00:52:45.916Z,74.64
2022-08-22T00:55:34.951Z,74.84
2022-08-22T00:58:30.054Z,74.63
2022-08-22T01:01:04.427Z,74.74
2022-08-22T01:04:05.746Z,75.98
2022-08-22T01:06:43.884Z,76.42
2022-08-22T01:09:35.474Z,77.31
2022-08-22T01:12:17.424Z,77.74
2022-08-22T01:14:49.186Z,78.33
2022-08-22T01:17:59.089Z,78.30
2022-08-22T01:20:59.205Z,78.50
2022-08-22T01:24:00.335Z,78.88
2022-08-22T01:27:01.650Z,79.09
2022-08-22T01:29:54.982Z,78.90
2022-08-22T01:32:57.342Z,78.24
2022-08-22T01:35:55.715Z,78.23
2022-08-22T01:39:01.894Z,78.38
2022-08-22T01:42:03.726Z,78.58
2022-08-22T01:44:49.984Z,78.09
2022-08-22T01:47:20.810Z,77.92
2022-08-22T01:49:53.773Z,77.98
2022-08-22T01:52:36.557Z,78.16
2022-08-22T01:55:10.264Z,77.96
2022-08-22T01:57:51.622Z,78.42
2022-08-22T02:00:35.064Z,78.81
2022-08-22T02:03:18.784Z,78.81
2022-08-22T02:05:52.049Z,78.39
2022-08-22T02:08:31.446Z,78.34
2022-08-22T02:11:03.387Z,78.39
2022-08-22T02:13:48.660Z,78.83
2022-08-22T02:16:20.776Z,79.28
2022-08-22T02:19:21.154Z,78.92
2022-08-22T02:21:55.988Z,79.60
2022-08-22T02:24:35.990Z,79.56
2022-08-22T02:27:11.808Z,79.51
2022-08-22T02:29:43.670Z,79.70
2022-08-22T02:32:22.396Z,79.88
2022-08-22T02:34:59.418Z,79.71
2022-08-22T02:37:34.406Z,79.69
2022-08-22T02:40:10.334Z,79.61
2022-08-22T02:42:42.774Z,79.62
2022-08-22T02:45:20.853Z,79.77
2022-08-22T02:47:56.234Z,80.06
2022-08-22T02:50:31.778Z,80.47
2022-08-22T02:53:05.521Z,80.24
2022-08-22T02:55:46.155Z,80.50
2022-08-22T02:58:23.097Z,80.54
2022-08-22T03:01:08.555Z,80.60
2022-08-22T03:03:40.139Z,80.86
2022-08-22T03:06:28.022Z,80.91
2022-08-22T03:09:07.185Z,81.50
2022-08-22T03:11:40.643Z,81.46
2022-08-22T03:14:15.756Z,81.60
2022-08-22T03:16:52.176Z,81.27
2022-08-22T03:19:27.592Z,81.97
2022-08-22T03:21:58.127Z,81.58
2022-08-22T03:24:32.047Z,82.40
2022-08-22T03:27:10.493Z,82.07
2022-08-22T03:29:39.947Z,82.40
2022-08-22T03:32:11.283Z,82.24
2022-08-22T03:34:53.306Z,82.35
2022-08-22T03:37:28.320Z,82.66
2022-08-22T03:40:00.962Z,82.33
2022-08-22T03:43:03.498Z,82.37
2022-08-22T03:46:02.028Z,82.21
2022-08-22T03:49:00.897Z,81.90
2022-08-22T03:51:54.740Z,82.13
2022-08-22T03:55:02.790Z,82.71
2022-08-22T03:58:19.166Z,82.38
2022-08-22T04:01:28.202Z,82.33
2022-08-22T04:04:28.456Z,82.47
2022-08-22T04:07:31.535Z,82.44
2022-08-22T04:10:22.312Z,82.31
2022-08-22T04:13:03.816Z,82.35
2022-08-22T04:15:53.137Z,82.39
2022-08-22T04:18:49.686Z,82.38
2022-08-22T04:21:41.715Z,82.49
2022-08-22T04:24:30.511Z,82.79
2022-08-22T04:27:02.465Z,82.69
2022-08-22T04:29:38.724Z,82.98
2022-08-22T04:32:12.799Z,82.96
2022-08-22T04:34:49.869Z,83.25
2022-08-22T04:37:23.540Z,83.19
2022-08-22T04:39:56.801Z,83.29
2022-08-22T04:42:33.577Z,83.22
2022-08-22T04:45:07.295Z,83.19
2022-08-22T04:47:39.350Z,83.45
2022-08-22T04:50:13.971Z,83.53
2022-08-22T04:52:56.170Z,83.83
2022-08-22T04:55:31.558Z,84.55
2022-08-22T04:58:09.555Z,84.42
2022-08-22T05:00:41.480Z,84.14
2022-08-22T05:03:12.149Z,84.17
2022-08-22T05:05:42.430Z,84.73
2022-08-22T05:08:12.604Z,84.47
2022-08-22T05:10:43.273Z,84.70
2022-08-22T05:13:15.290Z,84.37
2022-08-22T05:15:45.771Z,84.35
2022-08-22T05:18:19.801Z,84.59
2022-08-22T05:20:51.227Z,84.45
2022-08-22T05:23:21.401Z,84.64
2022-08-22T05:25:51.771Z,84.87
2022-08-22T05:28:31.170Z,84.95
2022-08-22T05:30:58.838Z,84.96
2022-08-22T05:33:30.095Z,85.51
2022-08-22T05:36:03.182Z,85.36
2022-08-22T05:38:33.515Z,85.80
2022-08-22T05:41:05.721Z,85.84
2022-08-22T05:43:36.979Z,86.14
2022-08-22T05:46:07.256Z,85.53
2022-08-22T05:48:40.320Z,86.11
2022-08-22T05:51:15.292Z,85.86
2022-08-22T05:53:47.355Z,86.42
2022-08-22T05:56:18.642Z,86.35
2022-08-22T05:58:52.749Z,85.98
2022-08-22T06:01:24.853Z,86.11
2022-08-22T06:03:59.434Z,85.81
2022-08-22T06:06:29.930Z,85.04
2022-08-22T06:09:02.243Z,84.88
2022-08-22T06:11:34.581Z,84.34
2022-08-22T06:14:13.181Z,83.82
2022-08-22T06:16:47.534Z,83.77
2022-08-22T06:19:19.221Z,83.51
2022-08-22T06:21:50.608Z,82.84
2022-08-22T06:24:20.503Z,82.41
2022-08-22T06:26:50.193Z,82.88
2022-08-22T06:29:28.860Z,82.81
2022-08-22T06:31:56.992Z,81.92
2022-08-22T06:34:26.292Z,81.56
2022-08-22T06:36:57.170Z,81.04
2022-08-22T06:43:11.367Z,80.33
2022-08-22T06:45:40.005Z,79.80
2022-08-22T06:48:15.290Z,79.48
2022-08-22T06:50:44.376Z,79.27
2022-08-22T06:53:16.713Z,78.39
2022-08-22T06:55:47.932Z,77.98
2022-08-22T06:58:17.238Z,77.52
2022-08-22T07:00:51.116Z,76.80
2022-08-22T07:03:36.716Z,76.51
2022-08-22T07:06:04.345Z,75.61
2022-08-22T07:08:38.899Z,75.11
2022-08-22T07:11:13.690Z,75.10
2022-08-22T07:13:45.395Z,74.20
2022-08-22T07:16:12.525Z,73.53
2022-08-22T07:18:47.347Z,71.15
2022-08-22T07:21:25.023Z,69.56
2022-08-22T07:23:54.342Z,68.27
2022-08-22T07:26:30.851Z,68.51
2022-08-22T07:29:04.464Z,68.45
2022-08-22T07:31:36.965Z,66.71
2022-08-22T07:34:23.553Z,66.92
2022-08-22T07:36:58.491Z,67.28
2022-08-22T07:39:31.399Z,67.24
2022-08-22T07:42:08.306Z,66.80
2022-08-22T07:44:41.318Z,66.18
2022-08-22T07:47:13.025Z,66.17
2022-08-22T07:49:49.672Z,65.40
2022-08-22T07:52:17.501Z,64.84
2022-08-22T07:54:51.559Z,64.09
2022-08-22T07:57:26.627Z,62.37
2022-08-22T07:59:56.079Z,62.69
2022-08-22T08:02:24.247Z,62.36
2022-08-22T08:04:54.758Z,62.51
2022-08-22T08:07:25.233Z,62.37
2022-08-22T08:09:57.509Z,62.11
2022-08-22T08:12:30.194Z,61.25
2022-08-22T08:14:57.738Z,60.65
2022-08-22T08:17:31.538Z,60.23
2022-08-22T08:20:03.357Z,59.65
2022-08-22T08:22:30.915Z,58.71
2022-08-22T08:25:00.324Z,58.28
2022-08-22T08:27:30.850Z,57.30
2022-08-22T08:30:01.065Z,57.70
2022-08-22T08:32:32.017Z,57.53
2022-08-22T08:35:02.349Z,56.05
2022-08-22T08:37:40.098Z,54.89
2022-08-22T08:40:20.451Z,53.70
2022-08-22T08:43:02.397Z,53.35
2022-08-22T08:45:52.787Z,52.52
2022-08-22T08:49:06.351Z,50.04
2022-08-22T08:51:52.026Z,50.55
2022-08-22T08:54:40.619Z,50.03
2022-08-22T08:57:20.324Z,49.52
2022-08-22T09:00:00.404Z,49.94
2022-08-22T09:02:48.899Z,49.77
2022-08-22T09:05:40.865Z,49.18
2022-08-22T09:08:40.119Z,48.30
2022-08-22T09:11:39.802Z,45.35
2022-08-22T09:14:22.838Z,45.13
2022-08-22T09:17:16.868Z,45.63
2022-08-22T09:20:15.461Z,45.89
2022-08-22T09:23:12.301Z,43.62
2022-08-22T09:25:45.658Z,43.93
2022-08-22T09:28:18.544Z,43.72
2022-08-22T09:30:58.283Z,43.82
2022-08-22T09:33:46.424Z,42.65
2022-08-22T09:36:23.377Z,42.32
2022-08-22T09:38:55.520Z,41.95
2022-08-22T09:41:38.886Z,42.11
2022-08-22T09:44:29.160Z,42.03
2022-08-22T09:47:05.970Z,41.31
2022-08-22T09:49:45.958Z,41.10
2022-08-22T09:52:33.281Z,39.81
2022-08-22T09:55:08.961Z,39.05
2022-08-22T09:57:42.257Z,39.63
2022-08-22T10:00:22.242Z,39.26
2022-08-22T10:03:17.853Z,37.45
2022-08-22T10:05:47.479Z,37.95
2022-08-22T10:08:25.538Z,37.85
2022-08-22T10:11:19.766Z,36.81
2022-08-22T10:14:00.481Z,34.63
2022-08-22T10:16:51.040Z,35.98
2022-08-22T10:19:26.539Z,36.38
2022-08-22T10:22:19.353Z,36.33
2022-08-22T10:24:55.521Z,35.12
2022-08-22T10:27:42.126Z,35.15
2022-08-22T10:30:13.214Z,35.31
2022-08-22T10:32:44.815Z,35.00
2022-08-22T10:35:21.569Z,35.02
2022-08-22T10:37:55.607Z,34.89
2022-08-22T10:40:29.823Z,34.76
2022-08-22T10:43:03.900Z,34.62
2022-08-22T10:45:36.681Z,34.50
2022-08-22T10:48:25.949Z,33.12
2022-08-22T10:51:11.491Z,32.30
2022-08-22T10:54:08.475Z,32.96
2022-08-22T10:56:46.021Z,33.38
2022-08-22T10:59:28.174Z,32.41
2022-08-22T11:02:08.200Z,31.99
2022-08-22T11:04:54.073Z,32.29
2022-08-22T11:07:48.732Z,32.36
2022-08-22T11:10:28.711Z,32.12
2022-08-22T11:13:12.322Z,31.51
2022-08-22T11:15:54.835Z,31.64
2022-08-22T11:18:35.134Z,31.62
2022-08-22T11:21:07.338Z,31.16
2022-08-22T11:23:42.263Z,31.48
2022-08-22T11:26:33.804Z,31.17
2022-08-22T11:29:32.390Z,30.56
2022-08-22T11:32:09.454Z,29.72
2022-08-22T11:34:48.442Z,29.64
2022-08-22T11:37:43.337Z,28.76
2022-08-22T11:40:24.545Z,28.87
2022-08-22T11:43:00.827Z,29.42
2022-08-22T11:45:36.955Z,28.25
2022-08-22T11:48:11.841Z,28.42
2022-08-22T11:50:45.136Z,29.19
2022-08-22T11:53:27.253Z,29.31
2022-08-22T11:56:12.725Z,29.49
2022-08-22T11:58:49.957Z,29.06
2022-08-22T12:01:21.810Z,29.51
2022-08-22T12:04:03.324Z,28.87
2022-08-22T12:06:50.264Z,28.42
2022-08-22T12:09:35.558Z,28.91
2022-08-22T12:12:33.830Z,28.02
2022-08-22T12:15:11.111Z,28.35
2022-08-22T12:18:21.311Z,28.84
2022-08-22T12:21:21.608Z,28.52
2022-08-22T12:24:11.317Z,28.48
2022-08-22T12:27:01.933Z,27.99
2022-08-22T12:29:51.274Z,27.17
2022-08-22T12:32:43.967Z,26.65
2022-08-22T12:35:29.709Z,26.07
2022-08-22T12:38:11.661Z,25.69
2022-08-22T12:41:27.807Z,26.29
2022-08-22T12:44:17.201Z,25.56
2022-08-22T12:47:01.095Z,25.91
2022-08-22T12:49:41.803Z,25.47
2022-08-22T12:52:32.430Z,24.97
2022-08-22T12:55:27.431Z,24.42
2022-08-22T12:58:04.139Z,23.98
2022-08-22T13:00:34.830Z,24.09
2022-08-22T13:03:07.018Z,23.99
2022-08-22T13:05:41.038Z,23.56
2022-08-22T13:08:13.409Z,22.84
2022-08-22T13:10:46.517Z,22.95
2022-08-22T13:13:36.526Z,22.47
2022-08-22T13:16:07.292Z,21.58
2022-08-22T13:18:45.501Z,21.56
2022-08-22T13:21:16.819Z,21.75
2022-08-22T13:23:47.011Z,22.32
2022-08-22T13:26:33.104Z,22.47
2022-08-22T13:29:24.702Z,22.02
2022-08-22T13:31:55.214Z,21.29
2022-08-22T13:34:39.600Z,21.80
2022-08-22T13:37:11.783Z,22.43
2022-08-22T13:39:42.058Z,22.44
2022-08-22T13:42:27.643Z,22.72
2022-08-22T13:45:02.469Z,22.92
2022-08-22T13:47:32.014Z,23.54
2022-08-22T13:50:09.028Z,22.91
2022-08-22T13:52:45.835Z,22.86
2022-08-22T13:55:27.626Z,22.53
2022-08-22T13:58:02.415Z,22.63
2022-08-22T14:01:17.810Z,22.45
2022-08-22T14:03:49.170Z,22.42
2022-08-22T14:06:37.768Z,21.94
2022-08-22T14:09:17.369Z,22.28
2022-08-22T14:12:06.821Z,21.66
2022-08-22T14:14:42.438Z,20.59
2022-08-22T14:17:15.409Z,19.86
2022-08-22T14:19:58.680Z,20.15
2022-08-22T14:22:34.791Z,20.66
2022-08-22T14:25:07.539Z,21.91
2022-08-22T14:27:37.723Z,21.79
2022-08-22T14:30:14.876Z,22.67
2022-08-22T14:32:45.757Z,22.33
2022-08-22T14:35:25.733Z,22.32
2022-08-22T14:38:17.365Z,22.14
2022-08-22T14:40:45.425Z,23.21
2022-08-22T14:43:22.488Z,22.96
2022-08-22T14:45:56.538Z,22.84
2022-08-22T14:48:31.049Z,23.34
2022-08-22T14:51:05.354Z,23.43
2022-08-22T14:53:35.644Z,23.68
2022-08-22T14:56:07.966Z,23.58
2022-08-22T14:58:49.076Z,23.77
2022-08-22T15:01:21.677Z,23.33
2022-08-22T15:03:54.769Z,23.57
2022-08-22T15:06:33.254Z,23.13
2022-08-22T15:09:07.852Z,24.06
2022-08-22T15:11:36.576Z,23.60
2022-08-22T15:14:07.633Z,23.83
2022-08-22T15:16:44.661Z,23.59
2022-08-22T15:19:25.010Z,23.00
2022-08-22T15:22:08.394Z,23.53
2022-08-22T15:24:43.062Z,24.11
2022-08-22T15:27:10.544Z,23.93
2022-08-22T15:29:49.955Z,23.86
2022-08-22T15:32:22.112Z,23.49
2022-08-22T15:34:49.196Z,23.78
2022-08-22T15:37:32.371Z,23.46
2022-08-22T15:40:12.027Z,23.09
2022-08-22T15:42:42.503Z,22.23
2022-08-22T15:45:20.833Z,22.13
2022-08-22T15:47:52.207Z,22.53
2022-08-22T15:50:30.913Z,23.78
2022-08-22T15:53:15.082Z,22.25
2022-08-22T15:56:20.594Z,22.62
2022-08-22T15:58:49.934Z,22.88
2022-08-22T16:01:20.473Z,22.41
2022-08-22T16:03:54.538Z,22.53
2022-08-22T16:06:40.532Z,22.44
2022-08-22T16:09:31.804Z,22.12
2022-08-22T16:12:04.143Z,22.55
2022-08-22T16:14:49.225Z,22.50
2022-08-22T16:17:45.605Z,22.69
2022-08-22T16:20:54.224Z,23.00
2022-08-22T16:23:21.239Z,22.86
2022-08-22T16:26:09.378Z,23.23
2022-08-22T16:28:58.597Z,23.29
2022-08-22T16:31:30.396Z,24.06
2022-08-22T16:34:18.664Z,24.22
2022-08-22T16:36:49.163Z,24.44
2022-08-22T16:39:38.778Z,24.42
2022-08-22T16:42:26.374Z,24.53
2022-08-22T16:45:10.462Z,24.96
2022-08-22T16:47:42.718Z,25.08
2022-08-22T16:50:32.231Z,26.07
2022-08-22T16:53:02.528Z,26.40
2022-08-22T16:55:42.806Z,26.32
2022-08-22T16:58:22.553Z,26.68
2022-08-22T17:00:58.686Z,27.37
2022-08-22T17:03:37.672Z,27.21
2022-08-22T17:06:19.019Z,27.59
2022-08-22T17:08:57.163Z,27.95
2022-08-22T17:11:35.106Z,28.62
2022-08-22T17:14:25.658Z,28.74
2022-08-22T17:17:12.505Z,29.25
2022-08-22T17:19:47.809Z,29.27
2022-08-22T17:22:29.256Z,29.48
2022-08-22T17:25:09.030Z,29.91
2022-08-22T17:27:39.583Z,30.33
2022-08-22T17:30:09.772Z,30.71
2022-08-22T17:33:03.672Z,31.28
2022-08-22T17:35:43.273Z,32.41
2022-08-22T17:38:26.642Z,33.28
2022-08-22T17:41:05.628Z,33.68
2022-08-22T17:43:49.650Z,34.32
2022-08-22T17:46:41.636Z,34.48
2022-08-22T17:49:22.408Z,34.58
2022-08-22T17:51:57.042Z,34.95
2022-08-22T17:54:31.953Z,34.96
2022-08-22T17:57:05.667Z,35.10
2022-08-22T17:59:39.666Z,35.18
2022-08-22T18:02:13.051Z,35.65
2022-08-22T18:04:47.589Z,36.10
2022-08-22T18:07:41.075Z,36.70
2022-08-22T18:10:12.431Z,36.26
2022-08-22T18:12:47.731Z,36.98
2022-08-22T18:15:25.035Z,37.23
2022-08-22T18:17:58.124Z,37.29
2022-08-22T18:20:33.210Z,37.13
2022-08-22T18:23:21.522Z,37.35
2022-08-22T18:26:03.602Z,37.46
2022-08-22T18:28:39.031Z,37.60
2022-08-22T18:31:08.743Z,37.29
2022-08-22T18:33:41.369Z,37.55
2022-08-22T18:36:19.936Z,38.17
2022-08-22T18:38:53.760Z,38.61
2022-08-22T18:41:28.692Z,38.95
2022-08-22T18:43:58.770Z,39.37
2022-08-22T18:46:41.151Z,39.91
2022-08-22T18:49:33.264Z,40.53
2022-08-22T18:52:21.768Z,41.16
2022-08-22T18:55:11.127Z,41.30
2022-08-22T18:57:55.591Z,41.92
2022-08-22T19:00:25.592Z,41.50
2022-08-22T19:03:12.954Z,41.74
2022-08-22T19:06:07.529Z,42.06
2022-08-22T19:09:10.783Z,42.37
2022-08-22T19:11:51.449Z,42.83
2022-08-22T19:14:32.793Z,42.84
2022-08-22T19:17:20.101Z,43.60
2022-08-22T19:19:59.113Z,43.68
2022-08-22T19:22:28.317Z,43.02
2022-08-22T19:25:16.662Z,43.13
2022-08-22T19:27:46.502Z,43.68
2022-08-22T19:30:42.406Z,44.37
2022-08-22T19:33:11.662Z,44.51
2022-08-22T19:35:44.677Z,45.07
2022-08-22T19:38:12.117Z,45.38
2022-08-22T19:40:53.055Z,45.90
2022-08-22T19:43:28.054Z,45.94
2022-08-22T19:45:55.892Z,45.64
2022-08-22T19:48:25.897Z,46.25
2022-08-22T19:51:09.164Z,47.16
2022-08-22T19:53:50.251Z,47.64
2022-08-22T19:56:42.678Z,47.48
2022-08-22T19:59:22.173Z,47.79
2022-08-22T20:01:57.710Z,47.76
2022-08-22T20:04:49.878Z,47.84
2022-08-22T20:07:28.651Z,47.62
2022-08-22T20:10:06.451Z,47.85
2022-08-22T20:12:44.198Z,47.87
2022-08-22T20:15:17.980Z,48.79
2022-08-22T20:18:11.659Z,49.33
2022-08-22T20:20:59.083Z,50.45
2022-08-22T20:23:30.355Z,50.19
2022-08-22T20:25:58.322Z,50.26
2022-08-22T20:28:35.050Z,50.47
2022-08-22T20:31:06.512Z,50.83
2022-08-22T20:33:36.571Z,51.26
2022-08-22T20:36:24.236Z,51.42
2022-08-22T20:38:58.705Z,51.49
2022-08-22T20:41:32.343Z,51.54
2022-08-22T20:44:06.232Z,51.59
2022-08-22T20:46:53.635Z,51.62
2022-08-22T20:49:24.787Z,51.92
2022-08-22T20:51:54.758Z,52.30
2022-08-22T20:54:24.219Z,52.24
2022-08-22T20:56:54.165Z,52.37
2022-08-22T20:59:26.631Z,52.42
2022-08-22T21:01:58.713Z,52.57
2022-08-22T21:04:28.142Z,52.88
2022-08-22T21:07:02.024Z,53.27
2022-08-22T21:09:29.493Z,53.48
2022-08-22T21:11:58.091Z,53.43
2022-08-22T21:14:31.452Z,53.68
2022-08-22T21:16:58.297Z,53.69
2022-08-22T21:19:27.546Z,53.63
2022-08-22T21:22:09.623Z,53.60
2022-08-22T21:24:36.328Z,54.12
2022-08-22T21:27:03.496Z,54.18
2022-08-22T21:29:42.566Z,54.54
2022-08-22T21:32:24.382Z,54.61
2022-08-22T21:34:52.206Z,54.54
2022-08-22T21:37:27.605Z,54.39
2022-08-22T21:40:00.427Z,54.38
2022-08-22T21:42:31.886Z,54.76
2022-08-22T21:45:02.833Z,54.95
2022-08-22T21:47:33.902Z,55.08
2022-08-22T21:50:04.619Z,55.07
2022-08-22T21:52:33.337Z,55.32
2022-08-22T21:55:14.339Z,55.60
2022-08-22T21:57:40.995Z,55.81
2022-08-22T22:00:41.146Z,56.29
2022-08-22T22:03:17.596Z,56.29
2022-08-22T22:05:44.257Z,56.53
2022-08-22T22:08:11.299Z,56.44
2022-08-22T22:10:38.893Z,56.55
2022-08-22T22:13:05.825Z,56.62
2022-08-22T22:15:36.464Z,56.94
2022-08-22T22:18:03.591Z,57.32
2022-08-22T22:20:30.170Z,57.60
2022-08-22T22:22:56.849Z,57.84
2022-08-22T22:25:39.506Z,57.86
2022-08-22T22:28:12.738Z,57.89
2022-08-22T22:30:41.907Z,57.95
2022-08-22T22:33:08.707Z,57.86
2022-08-22T22:35:37.825Z,58.61
2022-08-22T22:38:04.530Z,58.94
2022-08-22T22:40:31.264Z,59.13
2022-08-22T22:42:57.957Z,59.53
2022-08-22T22:45:24.562Z,59.63
2022-08-22T22:47:52.523Z,60.06
2022-08-22T22:50:19.450Z,60.27
2022-08-22T22:52:46.027Z,60.55
2022-08-22T22:55:12.599Z,60.51
2022-08-22T22:57:51.395Z,60.78
2022-08-22T23:00:29.170Z,61.38
2022-08-22T23:03:00.363Z,61.69
2022-08-22T23:05:27.459Z,61.62
2022-08-22T23:07:54.061Z,61.88
2022-08-22T23:10:22.258Z,62.21
2022-08-22T23:12:49.054Z,62.27
2022-08-22T23:15:15.733Z,62.22
2022-08-22T23:17:42.571Z,62.36
2022-08-22T23:20:10.901Z,62.80
2022-08-22T23:22:37.544Z,63.14
2022-08-22T23:25:04.836Z,63.19
2022-08-22T23:27:31.451Z,63.55
2022-08-22T23:29:58.052Z,63.72
2022-08-22T23:32:24.737Z,63.42
2022-08-22T23:34:51.293Z,63.57
2022-08-22T23:37:21.468Z,64.25
2022-08-22T23:39:48.454Z,64.71
2022-08-22T23:42:15.665Z,65.21
2022-08-22T23:44:43.614Z,65.27
2022-08-22T23:47:10.485Z,65.48
2022-08-22T23:49:38.562Z,65.79
2022-08-22T23:52:05.564Z,65.76
2022-08-22T23:54:33.988Z,65.74
2022-08-22T23:57:02.827Z,65.77
2022-08-22T23:59:40.728Z,65.91
